sensor_id;sensor_type;location;lat;lon;timestamp;pressure;altitude;pressure_sealevel;temperature;humidity
19590;BME280;12231;42.782;23.388;2022-10-16T00:00:52;96244.56;;;7.57;100.00
19590;BME280;12231;42.782;23.388;2022-10-16T00:03:17;96246.06;;;7.62;100.00
19590;BME280;12231;42.782;23.388;2022-10-16T00:05:43;96249.47;;;7.63;100.00
19590;BME280;12231;42.782;23.388;2022-10-16T00:08:11;96255.38;;;7.65;100.00
19590;BME280;12231;42.782;23.388;2022-10-16T00:10:37;96249.44;;;7.64;100.00
19590;BME280;12231;42.782;23.388;2022-10-16T00:13:03;96255.00;;;7.52;100.00
19590;BME280;12231;42.782;23.388;2022-10-16T00:15:30;96252.94;;;7.39;100.00
19590;BME280;12231;42.782;23.388;2022-10-16T00:17:55;96258.63;;;7.01;100.00
19590;BME280;12231;42.782;23.388;2022-10-16T00:20:20;96264.72;;;6.96;100.00
19590;BME280;12231;42.782;23.388;2022-10-16T00:22:46;96256.63;;;7.09;100.00
19590;BME280;12231;42.782;23.388;2022-10-16T00:25:11;96261.47;;;7.16;100.00
19590;BME280;12231;42.782;23.388;2022-10-16T00:27:37;96267.13;;;7.01;100.00
19590;BME280;12231;42.782;23.388;2022-10-16T00:30:02;96273.72;;;7.08;100.00
19590;BME280;12231;42.782;23.388;2022-10-16T00:32:28;96267.03;;;7.04;100.00
19590;BME280;12231;42.782;23.388;2022-10-16T00:34:53;96268.88;;;7.01;100.00
19590;BME280;12231;42.782;23.388;2022-10-16T00:37:22;96268.97;;;6.97;100.00
19590;BME280;12231;42.782;23.388;2022-10-16T00:39:47;96275.88;;;6.95;100.00
19590;BME280;12231;42.782;23.388;2022-10-16T00:42:16;96273.84;;;6.80;100.00
19590;BME280;12231;42.782;23.388;2022-10-16T00:44:54;96276.13;;;6.88;100.00
19590;BME280;12231;42.782;23.388;2022-10-16T00:49:51;96275.50;;;6.81;100.00
19590;BME280;12231;42.782;23.388;2022-10-16T00:52:17;96268.72;;;6.80;100.00
19590;BME280;12231;42.782;23.388;2022-10-16T00:54:43;96267.00;;;6.81;100.00
19590;BME280;12231;42.782;23.388;2022-10-16T00:57:09;96270.34;;;6.83;100.00
19590;BME280;12231;42.782;23.388;2022-10-16T01:02:00;96276.84;;;6.67;100.00
19590;BME280;12231;42.782;23.388;2022-10-16T01:04:32;96279.28;;;6.71;100.00
19590;BME280;12231;42.782;23.388;2022-10-16T01:20:54;96276.97;;;6.64;100.00
19590;BME280;12231;42.782;23.388;2022-10-16T01:26:58;96271.63;;;6.45;100.00
19590;BME280;12231;42.782;23.388;2022-10-16T01:32:46;96286.13;;;6.45;100.00
19590;BME280;12231;42.782;23.388;2022-10-16T01:35:22;96288.91;;;6.39;100.00
19590;BME280;12231;42.782;23.388;2022-10-16T01:38:09;96290.78;;;6.34;100.00
19590;BME280;12231;42.782;23.388;2022-10-16T01:40:39;96297.66;;;6.32;100.00
19590;BME280;12231;42.782;23.388;2022-10-16T01:43:12;96301.13;;;6.31;100.00
19590;BME280;12231;42.782;23.388;2022-10-16T01:45:41;96292.59;;;6.30;100.00
19590;BME280;12231;42.782;23.388;2022-10-16T01:48:12;96296.00;;;6.31;100.00
19590;BME280;12231;42.782;23.388;2022-10-16T01:50:41;96301.16;;;6.29;100.00
19590;BME280;12231;42.782;23.388;2022-10-16T01:53:11;96304.75;;;6.24;100.00
19590;BME280;12231;42.782;23.388;2022-10-16T01:55:41;96297.88;;;6.26;100.00
19590;BME280;12231;42.782;23.388;2022-10-16T01:58:12;96301.28;;;6.25;100.00
19590;BME280;12231;42.782;23.388;2022-10-16T02:00:39;96309.72;;;6.28;100.00
19590;BME280;12231;42.782;23.388;2022-10-16T02:03:06;96305.63;;;6.23;100.00
19590;BME280;12231;42.782;23.388;2022-10-16T02:05:54;96307.31;;;6.24;100.00
19590;BME280;12231;42.782;23.388;2022-10-16T02:08:23;96305.59;;;6.24;100.00
19590;BME280;12231;42.782;23.388;2022-10-16T02:10:49;96309.72;;;6.28;100.00
19590;BME280;12231;42.782;23.388;2022-10-16T02:13:23;96315.56;;;6.32;100.00
19590;BME280;12231;42.782;23.388;2022-10-16T02:15:52;96317.25;;;6.33;100.00
19590;BME280;12231;42.782;23.388;2022-10-16T02:18:17;96313.00;;;6.32;100.00
19590;BME280;12231;42.782;23.388;2022-10-16T02:20:59;96320.78;;;6.29;100.00
19590;BME280;12231;42.782;23.388;2022-10-16T02:26:03;96326.97;;;6.22;100.00
19590;BME280;12231;42.782;23.388;2022-10-16T02:28:38;96330.69;;;6.12;100.00
19590;BME280;12231;42.782;23.388;2022-10-16T02:31:09;96324.56;;;6.17;100.00
19590;BME280;12231;42.782;23.388;2022-10-16T02:33:37;96327.31;;;6.11;100.00
19590;BME280;12231;42.782;23.388;2022-10-16T02:36:05;96319.81;;;6.05;100.00
19590;BME280;12231;42.782;23.388;2022-10-16T02:38:31;96320.63;;;6.07;100.00
19590;BME280;12231;42.782;23.388;2022-10-16T02:40:57;96327.38;;;6.08;100.00
19590;BME280;12231;42.782;23.388;2022-10-16T02:43:22;96321.56;;;6.05;100.00
19590;BME280;12231;42.782;23.388;2022-10-16T02:45:49;96325.97;;;6.00;100.00
19590;BME280;12231;42.782;23.388;2022-10-16T02:48:15;96323.50;;;5.97;100.00
19590;BME280;12231;42.782;23.388;2022-10-16T02:50:40;96335.31;;;6.01;100.00
19590;BME280;12231;42.782;23.388;2022-10-16T02:53:07;96335.50;;;5.95;100.00
19590;BME280;12231;42.782;23.388;2022-10-16T02:55:32;96336.31;;;5.97;100.00
19590;BME280;12231;42.782;23.388;2022-10-16T02:57:58;96341.47;;;5.94;100.00
19590;BME280;12231;42.782;23.388;2022-10-16T03:00:23;96338.38;;;5.84;100.00
19590;BME280;12231;42.782;23.388;2022-10-16T03:02:49;96341.88;;;5.80;100.00
19590;BME280;12231;42.782;23.388;2022-10-16T03:05:15;96338.44;;;5.81;100.00
19590;BME280;12231;42.782;23.388;2022-10-16T03:07:40;96343.53;;;5.81;100.00
19590;BME280;12231;42.782;23.388;2022-10-16T03:10:06;96341.03;;;5.80;100.00
19590;BME280;12231;42.782;23.388;2022-10-16T03:12:32;96341.47;;;5.94;100.00
19590;BME280;12231;42.782;23.388;2022-10-16T03:14:58;96343.00;;;6.54;100.00
19590;BME280;12231;42.782;23.388;2022-10-16T03:17:24;96328.63;;;9.99;100.00
19590;BME280;12231;42.782;23.388;2022-10-16T03:19:50;96320.88;;;10.88;100.00
19590;BME280;12231;42.782;23.388;2022-10-16T03:22:15;96324.53;;;11.01;100.00
19590;BME280;12231;42.782;23.388;2022-10-16T03:24:41;96333.56;;;10.40;100.00
19590;BME280;12231;42.782;23.388;2022-10-16T03:27:06;96338.72;;;10.22;100.00
19590;BME280;12231;42.782;23.388;2022-10-16T03:29:32;96343.81;;;10.23;100.00
19590;BME280;12231;42.782;23.388;2022-10-16T03:31:58;96340.91;;;10.12;100.00
19590;BME280;12231;42.782;23.388;2022-10-16T03:34:24;96339.06;;;10.33;100.00
19590;BME280;12231;42.782;23.388;2022-10-16T03:36:49;96345.69;;;10.38;100.00
19590;BME280;12231;42.782;23.388;2022-10-16T03:39:15;96342.72;;;10.29;100.00
19590;BME280;12231;42.782;23.388;2022-10-16T03:41:40;96339.00;;;10.34;100.00
19590;BME280;12231;42.782;23.388;2022-10-16T03:44:06;96341.09;;;10.26;100.00
19590;BME280;12231;42.782;23.388;2022-10-16T03:46:31;96346.38;;;10.23;100.00
19590;BME280;12231;42.782;23.388;2022-10-16T03:48:57;96348.66;;;9.92;99.93
19590;BME280;12231;42.782;23.388;2022-10-16T03:51:22;96355.09;;;9.63;98.91
19590;BME280;12231;42.782;23.388;2022-10-16T03:53:48;96353.69;;;9.95;100.00
19590;BME280;12231;42.782;23.388;2022-10-16T03:56:13;96349.50;;;10.30;100.00
19590;BME280;12231;42.782;23.388;2022-10-16T03:58:39;96347.56;;;10.53;100.00
19590;BME280;12231;42.782;23.388;2022-10-16T04:01:04;96346.47;;;10.57;100.00
19590;BME280;12231;42.782;23.388;2022-10-16T04:03:30;96346.78;;;10.51;100.00
19590;BME280;12231;42.782;23.388;2022-10-16T04:05:55;96354.03;;;10.43;100.00
19590;BME280;12231;42.782;23.388;2022-10-16T04:08:21;96348.88;;;10.43;100.00
19590;BME280;12231;42.782;23.388;2022-10-16T04:10:46;96362.13;;;10.36;98.95
19590;BME280;12231;42.782;23.388;2022-10-16T04:13:12;96358.41;;;10.41;99.59
19590;BME280;12231;42.782;23.388;2022-10-16T04:15:38;96354.38;;;10.54;100.00
19590;BME280;12231;42.782;23.388;2022-10-16T04:18:04;96357.63;;;10.58;100.00
19590;BME280;12231;42.782;23.388;2022-10-16T04:20:30;96367.00;;;10.42;98.72
19590;BME280;12231;42.782;23.388;2022-10-16T04:22:55;96372.38;;;10.37;98.06
19590;BME280;12231;42.782;23.388;2022-10-16T04:25:21;96366.75;;;10.29;97.75
19590;BME280;12231;42.782;23.388;2022-10-16T04:27:46;96372.06;;;10.25;98.28
19590;BME280;12231;42.782;23.388;2022-10-16T04:30:12;96371.88;;;10.29;99.00
19590;BME280;12231;42.782;23.388;2022-10-16T04:32:38;96367.00;;;10.23;97.69
19590;BME280;12231;42.782;23.388;2022-10-16T04:35:03;96374.94;;;10.37;98.24
19590;BME280;12231;42.782;23.388;2022-10-16T04:37:29;96374.91;;;10.56;98.70
19590;BME280;12231;42.782;23.388;2022-10-16T04:39:54;96378.59;;;10.15;96.02
19590;BME280;12231;42.782;23.388;2022-10-16T04:42:20;96377.16;;;10.45;98.56
19590;BME280;12231;42.782;23.388;2022-10-16T04:44:46;96382.59;;;10.02;93.98
19590;BME280;12231;42.782;23.388;2022-10-16T04:47:11;96389.09;;;10.29;95.44
19590;BME280;12231;42.782;23.388;2022-10-16T04:49:36;96387.56;;;10.60;97.40
19590;BME280;12231;42.782;23.388;2022-10-16T04:52:02;96385.03;;;10.77;97.83
19590;BME280;12231;42.782;23.388;2022-10-16T04:54:27;96387.63;;;10.94;97.12
19590;BME280;12231;42.782;23.388;2022-10-16T04:56:53;96386.47;;;11.19;96.31
19590;BME280;12231;42.782;23.388;2022-10-16T04:59:19;96392.69;;;11.32;91.37
19590;BME280;12231;42.782;23.388;2022-10-16T05:01:45;96393.44;;;11.51;90.73
19590;BME280;12231;42.782;23.388;2022-10-16T05:04:11;96394.19;;;12.02;90.38
19590;BME280;12231;42.782;23.388;2022-10-16T05:06:37;96389.25;;;12.46;88.06
19590;BME280;12231;42.782;23.388;2022-10-16T05:09:06;96401.31;;;12.92;84.97
19590;BME280;12231;42.782;23.388;2022-10-16T05:11:32;96394.69;;;13.33;80.50
19590;BME280;12231;42.782;23.388;2022-10-16T05:13:57;96391.13;;;13.64;76.92
19590;BME280;12231;42.782;23.388;2022-10-16T05:16:23;96394.13;;;13.86;74.22
19590;BME280;12231;42.782;23.388;2022-10-16T05:18:48;96393.75;;;14.06;73.30
19590;BME280;12231;42.782;23.388;2022-10-16T05:21:14;96391.91;;;14.08;72.84
19590;BME280;12231;42.782;23.388;2022-10-16T05:23:39;96384.47;;;14.44;71.38
19590;BME280;12231;42.782;23.388;2022-10-16T05:26:05;96377.50;;;14.73;69.54
19590;BME280;12231;42.782;23.388;2022-10-16T05:28:30;96382.63;;;14.87;68.78
19590;BME280;12231;42.782;23.388;2022-10-16T05:30:56;96383.66;;;14.30;69.31
19590;BME280;12231;42.782;23.388;2022-10-16T05:33:24;96388.47;;;14.08;70.64
19590;BME280;12231;42.782;23.388;2022-10-16T05:35:50;96390.91;;;14.25;70.10
19590;BME280;12231;42.782;23.388;2022-10-16T05:38:17;96392.03;;;15.02;70.10
19590;BME280;12231;42.782;23.388;2022-10-16T05:40:42;96388.22;;;15.47;68.14
19590;BME280;12231;42.782;23.388;2022-10-16T05:43:08;96390.81;;;15.47;67.71
19590;BME280;12231;42.782;23.388;2022-10-16T05:45:34;96390.56;;;15.76;67.92
19590;BME280;12231;42.782;23.388;2022-10-16T05:48:00;96392.84;;;16.18;66.36
19590;BME280;12231;42.782;23.388;2022-10-16T05:50:26;96390.44;;;16.40;65.83
19590;BME280;12231;42.782;23.388;2022-10-16T05:52:51;96394.97;;;16.62;64.57
19590;BME280;12231;42.782;23.388;2022-10-16T05:55:17;96401.81;;;16.76;63.77
19590;BME280;12231;42.782;23.388;2022-10-16T05:57:42;96405.59;;;16.72;63.65
19590;BME280;12231;42.782;23.388;2022-10-16T06:00:08;96403.16;;;17.05;64.16
19590;BME280;12231;42.782;23.388;2022-10-16T06:02:34;96412.09;;;17.60;60.77
19590;BME280;12231;42.782;23.388;2022-10-16T06:04:59;96414.50;;;17.74;60.79
19590;BME280;12231;42.782;23.388;2022-10-16T06:07:25;96419.75;;;17.86;62.16
19590;BME280;12231;42.782;23.388;2022-10-16T06:09:51;96425.78;;;17.86;60.92
19590;BME280;12231;42.782;23.388;2022-10-16T06:12:18;96419.47;;;18.34;60.43
19590;BME280;12231;42.782;23.388;2022-10-16T06:14:45;96426.34;;;18.35;59.17
19590;BME280;12231;42.782;23.388;2022-10-16T06:17:12;96422.94;;;18.68;58.62
19590;BME280;12231;42.782;23.388;2022-10-16T06:19:38;96427.81;;;19.26;57.58
19590;BME280;12231;42.782;23.388;2022-10-16T06:22:04;96423.28;;;19.71;56.10
19590;BME280;12231;42.782;23.388;2022-10-16T06:24:29;96428.56;;;20.21;54.20
19590;BME280;12231;42.782;23.388;2022-10-16T06:26:54;96429.09;;;20.66;54.35
19590;BME280;12231;42.782;23.388;2022-10-16T06:29:20;96429.53;;;21.11;50.85
19590;BME280;12231;42.782;23.388;2022-10-16T06:31:45;96430.59;;;20.99;53.48
19590;BME280;12231;42.782;23.388;2022-10-16T06:34:11;96434.16;;;21.66;50.16
19590;BME280;12231;42.782;23.388;2022-10-16T06:36:37;96441.19;;;21.75;50.12
19590;BME280;12231;42.782;23.388;2022-10-16T06:39:03;96441.84;;;21.29;50.28
19590;BME280;12231;42.782;23.388;2022-10-16T06:41:29;96445.88;;;21.52;49.88
19590;BME280;12231;42.782;23.388;2022-10-16T06:43:55;96443.59;;;22.53;48.87
19590;BME280;12231;42.782;23.388;2022-10-16T06:46:23;96438.03;;;23.20;47.66
19590;BME280;12231;42.782;23.388;2022-10-16T06:48:49;96437.94;;;23.39;45.29
19590;BME280;12231;42.782;23.388;2022-10-16T06:51:16;96428.25;;;24.09;44.52
19590;BME280;12231;42.782;23.388;2022-10-16T06:53:50;96430.91;;;24.35;42.48
19590;BME280;12231;42.782;23.388;2022-10-16T06:56:18;96443.00;;;23.50;44.72
19590;BME280;12231;42.782;23.388;2022-10-16T06:58:44;96445.06;;;24.08;43.41
19590;BME280;12231;42.782;23.388;2022-10-16T07:01:11;96448.00;;;22.62;45.96
19590;BME280;12231;42.782;23.388;2022-10-16T07:03:40;96446.47;;;23.85;44.03
19590;BME280;12231;42.782;23.388;2022-10-16T07:06:08;96441.75;;;25.25;42.15
19590;BME280;12231;42.782;23.388;2022-10-16T07:08:35;96442.53;;;24.24;43.02
19590;BME280;12231;42.782;23.388;2022-10-16T07:11:07;96453.13;;;24.58;42.89
19590;BME280;12231;42.782;23.388;2022-10-16T07:13:34;96452.81;;;25.86;40.10
19590;BME280;12231;42.782;23.388;2022-10-16T07:16:27;96451.16;;;26.73;38.82
19590;BME280;12231;42.782;23.388;2022-10-16T07:18:57;96456.31;;;26.03;38.50
19590;BME280;12231;42.782;23.388;2022-10-16T07:21:25;96455.78;;;26.63;38.63
19590;BME280;12231;42.782;23.388;2022-10-16T07:23:56;96452.16;;;25.84;39.24
19590;BME280;12231;42.782;23.388;2022-10-16T07:26:23;96458.69;;;27.01;38.27
19590;BME280;12231;42.782;23.388;2022-10-16T07:28:49;96449.38;;;27.13;37.17
19590;BME280;12231;42.782;23.388;2022-10-16T07:31:16;96454.88;;;26.95;37.77
19590;BME280;12231;42.782;23.388;2022-10-16T07:33:43;96450.47;;;26.79;38.04
19590;BME280;12231;42.782;23.388;2022-10-16T07:36:10;96458.28;;;26.57;36.89
19590;BME280;12231;42.782;23.388;2022-10-16T07:38:36;96455.66;;;27.12;36.20
19590;BME280;12231;42.782;23.388;2022-10-16T07:41:13;96450.09;;;27.98;35.42
19590;BME280;12231;42.782;23.388;2022-10-16T07:43:38;96445.00;;;28.11;36.19
19590;BME280;12231;42.782;23.388;2022-10-16T07:46:04;96450.53;;;27.49;37.01
19590;BME280;12231;42.782;23.388;2022-10-16T07:48:32;96446.41;;;27.99;34.96
19590;BME280;12231;42.782;23.388;2022-10-16T07:50:59;96445.59;;;27.99;35.93
19590;BME280;12231;42.782;23.388;2022-10-16T07:53:25;96451.81;;;27.30;36.06
19590;BME280;12231;42.782;23.388;2022-10-16T07:55:51;96446.34;;;27.24;36.66
19590;BME280;12231;42.782;23.388;2022-10-16T07:58:16;96454.66;;;26.42;37.52
19590;BME280;12231;42.782;23.388;2022-10-16T08:00:42;96458.78;;;26.04;39.05
19590;BME280;12231;42.782;23.388;2022-10-16T08:03:08;96458.47;;;26.47;39.07
19590;BME280;12231;42.782;23.388;2022-10-16T08:05:33;96455.97;;;26.54;38.80
19590;BME280;12231;42.782;23.388;2022-10-16T08:08:00;96452.25;;;27.42;36.47
19590;BME280;12231;42.782;23.388;2022-10-16T08:10:27;96454.50;;;27.75;36.09
19590;BME280;12231;42.782;23.388;2022-10-16T08:12:53;96462.53;;;25.70;40.12
19590;BME280;12231;42.782;23.388;2022-10-16T08:15:20;96469.44;;;24.79;41.14
19590;BME280;12231;42.782;23.388;2022-10-16T08:18:04;96453.47;;;25.22;41.33
19590;BME280;12231;42.782;23.388;2022-10-16T08:20:31;96464.06;;;24.20;43.23
19590;BME280;12231;42.782;23.388;2022-10-16T08:22:57;96458.78;;;24.20;43.79
19590;BME280;12231;42.782;23.388;2022-10-16T08:25:24;96464.75;;;23.69;43.92
19590;BME280;12231;42.782;23.388;2022-10-16T08:27:49;96447.69;;;24.08;44.58
19590;BME280;12231;42.782;23.388;2022-10-16T08:30:17;96464.13;;;23.40;46.59
19590;BME280;12231;42.782;23.388;2022-10-16T08:32:42;96454.22;;;22.97;45.14
19590;BME280;12231;42.782;23.388;2022-10-16T08:35:09;96460.03;;;22.91;44.85
19590;BME280;12231;42.782;23.388;2022-10-16T08:37:35;96457.38;;;22.18;46.98
19590;BME280;12231;42.782;23.388;2022-10-16T08:40:01;96455.50;;;23.21;45.67
19590;BME280;12231;42.782;23.388;2022-10-16T08:45:15;96458.28;;;23.46;44.43
19590;BME280;12231;42.782;23.388;2022-10-16T08:50:31;96463.38;;;22.57;44.91
19590;BME280;12231;42.782;23.388;2022-10-16T08:52:58;96468.38;;;20.36;51.45
19590;BME280;12231;42.782;23.388;2022-10-16T08:57:52;96455.19;;;23.68;42.75
19590;BME280;12231;42.782;23.388;2022-10-16T09:00:18;96454.13;;;23.17;42.78
19590;BME280;12231;42.782;23.388;2022-10-16T09:02:54;96458.97;;;23.66;42.12
19590;BME280;12231;42.782;23.388;2022-10-16T09:11:05;96454.84;;;24.42;39.85
19590;BME280;12231;42.782;23.388;2022-10-16T09:13:56;96450.16;;;24.10;39.84
19590;BME280;12231;42.782;23.388;2022-10-16T09:16:32;96444.91;;;24.61;39.27
19590;BME280;12231;42.782;23.388;2022-10-16T09:19:17;96436.28;;;24.77;40.83
19590;BME280;12231;42.782;23.388;2022-10-16T09:21:46;96438.22;;;25.08;38.83
19590;BME280;12231;42.782;23.388;2022-10-16T09:24:18;96431.66;;;25.70;38.48
19590;BME280;12231;42.782;23.388;2022-10-16T09:26:45;96441.44;;;26.26;37.22
19590;BME280;12231;42.782;23.388;2022-10-16T09:29:15;96459.69;;;23.41;42.01
19590;BME280;12231;42.782;23.388;2022-10-16T09:31:42;96446.88;;;25.26;39.20
19590;BME280;12231;42.782;23.388;2022-10-16T09:37:18;96433.50;;;25.86;37.23
19590;BME280;12231;42.782;23.388;2022-10-16T09:39:50;96433.34;;;26.19;36.41
19590;BME280;12231;42.782;23.388;2022-10-16T09:42:22;96436.81;;;26.36;36.13
19590;BME280;12231;42.782;23.388;2022-10-16T09:44:51;96434.75;;;25.41;37.00
19590;BME280;12231;42.782;23.388;2022-10-16T09:47:21;96426.34;;;25.62;36.67
19590;BME280;12231;42.782;23.388;2022-10-16T09:49:56;96427.53;;;26.40;36.40
19590;BME280;12231;42.782;23.388;2022-10-16T09:52:23;96421.97;;;26.03;36.64
19590;BME280;12231;42.782;23.388;2022-10-16T09:54:54;96421.63;;;25.24;36.96
19590;BME280;12231;42.782;23.388;2022-10-16T09:57:20;96420.31;;;26.18;36.15
19590;BME280;12231;42.782;23.388;2022-10-16T09:59:57;96414.91;;;25.37;36.90
19590;BME280;12231;42.782;23.388;2022-10-16T10:02:38;96415.84;;;26.18;37.50
19590;BME280;12231;42.782;23.388;2022-10-16T10:05:06;96410.06;;;26.93;34.59
19590;BME280;12231;42.782;23.388;2022-10-16T10:07:43;96415.13;;;25.76;36.72
19590;BME280;12231;42.782;23.388;2022-10-16T10:10:28;96400.59;;;25.56;37.57
19590;BME280;12231;42.782;23.388;2022-10-16T10:12:57;96408.69;;;26.51;34.74
19590;BME280;12231;42.782;23.388;2022-10-16T10:15:23;96404.81;;;24.75;38.27
19590;BME280;12231;42.782;23.388;2022-10-16T10:17:54;96396.84;;;25.09;37.91
19590;BME280;12231;42.782;23.388;2022-10-16T10:20:28;96400.25;;;24.34;38.94
19590;BME280;12231;42.782;23.388;2022-10-16T10:22:55;96400.47;;;24.15;39.54
19590;BME280;12231;42.782;23.388;2022-10-16T10:33:44;96386.50;;;25.31;37.80
19590;BME280;12231;42.782;23.388;2022-10-16T10:36:34;96388.22;;;23.88;41.17
19590;BME280;12231;42.782;23.388;2022-10-16T10:42:13;96391.44;;;22.12;44.51
19590;BME280;12231;42.782;23.388;2022-10-16T10:52:43;96385.19;;;22.49;43.57
19590;BME280;12231;42.782;23.388;2022-10-16T11:03:27;96376.53;;;21.07;47.07
19590;BME280;12231;42.782;23.388;2022-10-16T11:06:05;96373.63;;;21.10;47.44
19590;BME280;12231;42.782;23.388;2022-10-16T11:08:37;96365.91;;;21.56;46.58
19590;BME280;12231;42.782;23.388;2022-10-16T11:11:29;96366.19;;;21.25;48.05
19590;BME280;12231;42.782;23.388;2022-10-16T11:14:05;96358.03;;;21.47;47.74
19590;BME280;12231;42.782;23.388;2022-10-16T11:16:48;96356.41;;;21.36;45.98
19590;BME280;12231;42.782;23.388;2022-10-16T11:30:25;96352.78;;;21.18;47.58
19590;BME280;12231;42.782;23.388;2022-10-16T11:32:57;96351.16;;;21.17;46.51
19590;BME280;12231;42.782;23.388;2022-10-16T11:38:32;96344.50;;;21.42;45.56
19590;BME280;12231;42.782;23.388;2022-10-16T11:43:45;96352.38;;;21.13;45.24
19590;BME280;12231;42.782;23.388;2022-10-16T11:46:20;96353.91;;;21.44;44.71
19590;BME280;12231;42.782;23.388;2022-10-16T11:49:20;96348.88;;;21.89;43.97
19590;BME280;12231;42.782;23.388;2022-10-16T11:54:46;96343.78;;;22.34;35.81
19590;BME280;12231;42.782;23.388;2022-10-16T11:57:26;96350.03;;;22.23;37.14
19590;BME280;12231;42.782;23.388;2022-10-16T11:59:55;96352.09;;;21.07;36.59
19590;BME280;12231;42.782;23.388;2022-10-16T12:07:41;96356.06;;;21.01;36.52
19590;BME280;12231;42.782;23.388;2022-10-16T12:10:25;96346.38;;;20.92;37.13
19590;BME280;12231;42.782;23.388;2022-10-16T12:12:52;96357.50;;;20.26;37.36
19590;BME280;12231;42.782;23.388;2022-10-16T12:15:20;96356.22;;;20.51;38.33
19590;BME280;12231;42.782;23.388;2022-10-16T12:17:47;96358.41;;;20.46;37.70
19590;BME280;12231;42.782;23.388;2022-10-16T12:20:32;96349.19;;;20.51;38.24
19590;BME280;12231;42.782;23.388;2022-10-16T12:25:27;96354.25;;;20.92;35.86
19590;BME280;12231;42.782;23.388;2022-10-16T12:27:56;96355.00;;;21.13;37.15
19590;BME280;12231;42.782;23.388;2022-10-16T12:30:24;96352.94;;;21.17;34.80
19590;BME280;12231;42.782;23.388;2022-10-16T12:32:56;96351.53;;;21.13;36.91
19590;BME280;12231;42.782;23.388;2022-10-16T12:35:28;96350.31;;;20.98;35.69
19590;BME280;12231;42.782;23.388;2022-10-16T12:38:08;96350.88;;;21.30;36.42
19590;BME280;12231;42.782;23.388;2022-10-16T12:40:38;96351.00;;;21.57;36.04
19590;BME280;12231;42.782;23.388;2022-10-16T12:45:59;96348.91;;;21.22;36.28
19590;BME280;12231;42.782;23.388;2022-10-16T12:48:24;96347.81;;;21.34;35.48
19590;BME280;12231;42.782;23.388;2022-10-16T12:50:50;96354.19;;;21.41;35.74
19590;BME280;12231;42.782;23.388;2022-10-16T12:53:21;96356.53;;;21.25;35.70
19590;BME280;12231;42.782;23.388;2022-10-16T13:07:30;96368.06;;;19.94;37.16
19590;BME280;12231;42.782;23.388;2022-10-16T13:10:11;96365.66;;;20.12;38.27
19590;BME280;12231;42.782;23.388;2022-10-16T13:13:11;96369.66;;;20.06;37.23
19590;BME280;12231;42.782;23.388;2022-10-16T13:18:25;96367.84;;;20.07;37.52
19590;BME280;12231;42.782;23.388;2022-10-16T13:24:06;96371.31;;;19.87;37.65
19590;BME280;12231;42.782;23.388;2022-10-16T13:29:20;96369.97;;;19.92;37.09
19590;BME280;12231;42.782;23.388;2022-10-16T13:31:47;96373.22;;;19.85;37.23
19590;BME280;12231;42.782;23.388;2022-10-16T13:34:17;96372.72;;;19.91;38.92
19590;BME280;12231;42.782;23.388;2022-10-16T13:36:49;96374.34;;;19.82;39.63
19590;BME280;12231;42.782;23.388;2022-10-16T13:39:29;96365.75;;;20.01;39.91
19590;BME280;12231;42.782;23.388;2022-10-16T13:42:24;96363.56;;;20.06;39.95
19590;BME280;12231;42.782;23.388;2022-10-16T13:44:54;96378.81;;;20.21;39.94
19590;BME280;12231;42.782;23.388;2022-10-16T13:47:28;96376.75;;;20.15;39.40
19590;BME280;12231;42.782;23.388;2022-10-16T13:50:09;96374.75;;;20.08;40.33
19590;BME280;12231;42.782;23.388;2022-10-16T13:52:36;96371.94;;;20.00;40.09
19590;BME280;12231;42.782;23.388;2022-10-16T13:55:15;96375.38;;;20.00;40.73
19590;BME280;12231;42.782;23.388;2022-10-16T13:57:41;96379.63;;;19.92;41.57
19590;BME280;12231;42.782;23.388;2022-10-16T14:00:28;96389.50;;;19.88;41.44
19590;BME280;12231;42.782;23.388;2022-10-16T14:03:03;96387.97;;;19.65;41.69
19590;BME280;12231;42.782;23.388;2022-10-16T14:05:29;96390.78;;;19.53;43.05
19590;BME280;12231;42.782;23.388;2022-10-16T14:07:56;96393.78;;;19.48;42.87
19590;BME280;12231;42.782;23.388;2022-10-16T14:10:29;96383.47;;;19.25;43.05
19590;BME280;12231;42.782;23.388;2022-10-16T14:13:43;96393.09;;;19.24;43.68
19590;BME280;12231;42.782;23.388;2022-10-16T14:15:49;96392.91;;;19.16;42.80
19590;BME280;12231;42.782;23.388;2022-10-16T14:18:21;96401.41;;;18.97;41.87
19590;BME280;12231;42.782;23.388;2022-10-16T14:20:48;96404.84;;;18.87;42.98
19590;BME280;12231;42.782;23.388;2022-10-16T14:23:28;96395.75;;;18.59;43.74
19590;BME280;12231;42.782;23.388;2022-10-16T14:26:05;96401.47;;;18.53;43.01
19590;BME280;12231;42.782;23.388;2022-10-16T14:28:31;96400.25;;;18.46;42.96
19590;BME280;12231;42.782;23.388;2022-10-16T14:30:58;96396.91;;;18.33;44.29
19590;BME280;12231;42.782;23.388;2022-10-16T14:38:39;96404.63;;;18.02;46.13
19590;BME280;12231;42.782;23.388;2022-10-16T14:41:06;96410.75;;;18.01;46.49
19590;BME280;12231;42.782;23.388;2022-10-16T14:43:41;96404.47;;;17.92;46.50
19590;BME280;12231;42.782;23.388;2022-10-16T14:46:38;96410.13;;;17.86;46.77
19590;BME280;12231;42.782;23.388;2022-10-16T14:51:40;96408.91;;;17.68;48.99
19590;BME280;12231;42.782;23.388;2022-10-16T14:54:08;96415.69;;;17.70;48.02
19590;BME280;12231;42.782;23.388;2022-10-16T14:56:43;96418.97;;;17.61;47.88
19590;BME280;12231;42.782;23.388;2022-10-16T14:59:16;96421.75;;;17.47;49.50
19590;BME280;12231;42.782;23.388;2022-10-16T15:01:43;96417.53;;;17.34;52.08
19590;BME280;12231;42.782;23.388;2022-10-16T15:04:11;96425.06;;;17.26;49.05
19590;BME280;12231;42.782;23.388;2022-10-16T15:06:37;96428.47;;;17.15;48.95
19590;BME280;12231;42.782;23.388;2022-10-16T15:09:03;96425.13;;;17.13;58.88
19590;BME280;12231;42.782;23.388;2022-10-16T15:11:28;96424.47;;;16.99;51.08